Terminal Aerodrome Forecast
Issued by NWS Billings, MT

Home | Current Version | Previous Version | Text Only | Print | Product List | Glossary On
Versions: 1 2 3 4 5 6 7 8 9 10 11 12 13 14 15 16 17 18 19 20 21
000
FTUS45 KBYZ 221139
TAFMLS
TAF
KMLS 221139Z 2212/2312 27011KT P6SM FEW060
     FM221600 28017G26KT P6SM FEW100
     FM222300 26009KT P6SM SKC
     FM230500 16007KT P6SM SCT200=

USA.gov is the U.S. government's official web portal to all federal, state and local government web resources and services.